Southwest Georgia Regional Airport
KABY : rendu visible

Aérodrome :











RETROUVEZ-NOUS SUR...

 
LOGIN :

S'inscrire | Disclaimer

   EN    FR    IT 

 









Légende :    VFR   VFR Marginal   IFR   IFR Intensif   IFR Très Intensif
Visi : 
Plafond : 
>= 8 km
>= 3000ft
5 à 8 km
1000 à 3000 ft
1500m à 5 km
500 à 1000 ft
800 à 1500m
200 à 500 ft
< 800m
< 200 ft
Symboles :   Orages  Brouillard  Fortes neiges  Fortes précipitations  Vent > 20 kt






- Altitude de l'aérodrome : 197 ft
- Code IATA : ABY


KABY - Southwest Georgia Regional

DERNIER METAR :
  • 181653Z 15011KT 10SM FEW095 19/11 A3034 RMK AO2 PRESFR SLP274 T01890106

METARs EXPIRÉS :
  • 181553Z 13007KT 10SM CLR 15/09 A3040 RMK AO2 SLP293 T01500089
  • 181453Z 10007KT 10SM CLR 12/07 A3041 RMK AO2 SLP297 T01170067 56005
  • 181353Z 06007KT 10SM FEW050 BKN070 09/05 A3042 RMK AO2 SLP299 T00890050

TAF KABY
Valide du 18 à 12h jusqu'au 19 à 12h UTC


181120Z 1812/1912 09009KT P6SM OVC035
FM181900 17007KT P6SM VCSH OVC025
FM190200 13006KT 4SM RA BR OVC015
FM190600 20005KT 3SM -RA BR OVC003



MET'MAP, la Météo Aéronautique d'un coup d'oeil ! - Copyright ORBIFLY Décembre 2007 - Disclaimer

ORBIFLY MET'MAP TEAM :

Programmation & Développement : Alexandra Zaïnal
Sur une idée originale de : Baudouin d'Aumeries
Assistance à la programmation : Marc-Olivier Méhu
Soutien technique & logistique : Manuel Goepfert

Contact : metmap@orbifly.com




SOURCES & CREDITS :

   NOAA       Earth
Advisory